Time;durP1;ratioP1;P1;durP2;ratioP2;P2;SDS_P1;SDS_P2;PMS_P1;PMS_P2;Temp;Humidity;BMP_temperature;BMP_pressure;BME280_temperature;BME280_humidity;BME280_pressure;Samples;Min_cycle;Max_cycle;Signal;HPM_P1;HPM_P2
2023/07/10 00:01:14;;;;;;;7.95;4.28;;;21.00;90.90;;;;;;4944533;28;20062;-84
2023/07/10 00:03:42;;;;;;;5.90;3.80;;;21.00;90.90;;;;;;4967055;28;20450;-84
2023/07/10 00:06:12;;;;;;;4.85;3.50;;;21.00;90.90;;;;;;4945244;28;20050;-85
2023/07/10 00:08:40;;;;;;;8.68;4.72;;;21.00;90.90;;;;;;4959262;28;20058;-84
2023/07/10 00:11:18;;;;;;;7.53;3.80;;;21.00;91.00;;;;;;4943613;28;20059;-84
2023/07/10 00:13:46;;;;;;;5.32;3.60;;;20.90;91.00;;;;;;4963073;28;20507;-85
2023/07/10 00:16:19;;;;;;;4.95;3.05;;;20.80;91.00;;;;;;4961825;28;20054;-85
2023/07/10 00:18:47;;;;;;;5.97;3.40;;;20.90;91.10;;;;;;4944571;28;20114;-85
2023/07/10 00:21:15;;;;;;;7.57;4.47;;;20.90;91.10;;;;;;4983283;28;20066;-85
2023/07/10 00:23:42;;;;;;;6.55;3.60;;;20.80;91.20;;;;;;4990436;28;20050;-85
2023/07/10 00:26:26;;;;;;;6.63;3.85;;;20.80;91.10;;;;;;4934323;28;20054;-85
2023/07/10 00:28:55;;;;;;;7.53;5.40;;;20.90;91.10;;;;;;4965842;28;20077;-84
2023/07/10 00:31:27;;;;;;;8.68;4.97;;;20.90;91.20;;;;;;4977227;28;20050;-85
2023/07/10 00:33:54;;;;;;;6.55;3.72;;;20.80;91.20;;;;;;4961526;28;20149;-84
2023/07/10 00:36:35;;;;;;;6.10;3.92;;;20.90;91.20;;;;;;4937701;28;20050;-85
2023/07/10 00:39:22;;;;;;;6.15;3.65;;;20.90;91.10;;;;;;4948575;28;20154;-85
2023/07/10 00:41:55;;;;;;;5.13;3.47;;;20.90;91.10;;;;;;4947999;29;20075;-85
2023/07/10 00:44:31;;;;;;;5.75;3.72;;;20.90;91.10;;;;;;4960754;28;20141;-85
2023/07/10 00:47:08;;;;;;;7.55;4.07;;;20.90;91.10;;;;;;4966292;28;20046;-85
2023/07/10 00:49:50;;;;;;;6.13;4.22;;;20.90;91.10;;;;;;4956303;28;20059;-84
2023/07/10 00:52:46;;;;;;;7.60;3.63;;;20.90;91.10;;;;;;4960334;28;20137;-84
2023/07/10 00:55:26;;;;;;;5.70;3.17;;;21.00;91.00;;;;;;4957473;28;20050;-84
2023/07/10 00:58:21;;;;;;;5.63;3.13;;;21.00;91.00;;;;;;4963788;28;20050;-85
2023/07/10 01:01:03;;;;;;;;;;;20.90;91.00;;;;;;4963552;28;20042;-85
2023/07/10 01:03:31;;;;;;;6.78;4.20;;;20.90;91.00;;;;;;4957866;28;19925;-84
2023/07/10 01:06:02;;;;;;;4.10;3.08;;;20.90;91.10;;;;;;4942171;28;20046;-84
2023/07/10 01:08:31;;;;;;;8.25;3.50;;;20.90;91.00;;;;;;4942987;28;20133;-84
2023/07/10 01:10:59;;;;;;;6.18;3.20;;;20.80;91.00;;;;;;4973172;28;20050;-84
2023/07/10 01:13:26;;;;;;;4.30;2.83;;;20.80;91.00;;;;;;4949396;28;20454;-85
2023/07/10 01:15:53;;;;;;;4.53;2.70;;;20.90;91.00;;;;;;4949205;28;20109;-84
2023/07/10 01:18:24;;;;;;;5.57;2.70;;;20.90;91.10;;;;;;4958682;28;20062;-85
2023/07/10 01:21:06;;;;;;;6.07;3.45;;;20.90;90.90;;;;;;4949889;28;20047;-85
2023/07/10 01:23:33;;;;;;;5.95;3.20;;;20.90;90.90;;;;;;4963172;28;20040;-85
2023/07/10 01:26:03;;;;;;;6.20;3.45;;;20.80;91.00;;;;;;4974320;28;20049;-85
2023/07/10 01:28:35;;;;;;;6.10;3.08;;;20.80;91.10;;;;;;4951599;28;20061;-84
2023/07/10 01:31:06;;;;;;;5.53;3.30;;;20.70;91.20;;;;;;4959353;28;20088;-84
2023/07/10 01:33:40;;;;;;;5.63;3.27;;;20.60;91.20;;;;;;4964768;28;20047;-84
2023/07/10 01:36:12;;;;;;;3.63;2.70;;;20.60;91.30;;;;;;4957167;28;20049;-85
2023/07/10 01:38:58;;;;;;;5.85;4.10;;;20.50;91.30;;;;;;4943977;28;20487;-86
2023/07/10 01:41:38;;;;;;;5.30;3.20;;;20.50;91.50;;;;;;4962788;28;20065;-85
2023/07/10 01:44:26;;;;;;;10.13;3.33;;;20.40;91.40;;;;;;4944354;28;20551;-84
2023/07/10 01:46:54;;;;;;;4.32;2.72;;;20.40;91.40;;;;;;4929611;29;20047;-84
2023/07/10 01:49:32;;;;;;;5.25;2.95;;;20.40;91.40;;;;;;4970231;28;20113;-81
2023/07/10 01:52:04;;;;;;;5.18;3.28;;;20.40;91.70;;;;;;4964309;28;20081;-80
2023/07/10 01:54:31;;;;;;;4.65;2.70;;;20.30;91.50;;;;;;4964255;28;20046;-80
2023/07/10 01:56:59;;;;;;;4.50;2.67;;;20.30;91.50;;;;;;4921789;29;20049;-80
2023/07/10 01:59:26;;;;;;;6.30;3.28;;;20.30;91.50;;;;;;4954110;28;20392;-80
2023/07/10 02:01:55;;;;;;;7.10;2.58;;;20.30;91.50;;;;;;4956501;28;20113;-80
2023/07/10 02:04:22;;;;;;;4.75;2.00;;;20.30;91.40;;;;;;4949347;28;20078;-80
2023/07/10 02:06:49;;;;;;;3.50;1.75;;;20.30;91.40;;;;;;4956013;28;20070;-81
2023/07/10 02:09:16;;;;;;;4.68;2.00;;;20.30;91.40;;;;;;4937471;28;20153;-80
2023/07/10 02:11:43;;;;;;;4.20;1.95;;;20.30;91.40;;;;;;4960874;28;20502;-80
2023/07/10 02:14:10;;;;;;;4.13;1.95;;;20.40;91.40;;;;;;4947475;28;20411;-80
2023/07/10 02:16:37;;;;;;;3.78;1.63;;;20.40;91.30;;;;;;4957809;28;20141;-80
2023/07/10 02:19:05;;;;;;;3.78;1.55;;;20.40;91.30;;;;;;4948712;28;20046;-80
2023/07/10 02:21:33;;;;;;;2.85;1.67;;;20.40;91.20;;;;;;4969377;28;20046;-80
2023/07/10 02:24:00;;;;;;;2.65;1.42;;;20.40;91.20;;;;;;4927091;28;20106;-80
2023/07/10 02:26:29;;;;;;;5.97;1.65;;;20.40;91.20;;;;;;4941435;28;20488;-80
2023/07/10 02:28:57;;;;;;;2.55;1.30;;;20.40;91.20;;;;;;4935737;28;20058;-80
2023/07/10 02:31:25;;;;;;;2.90;1.50;;;20.30;91.20;;;;;;4949375;28;20134;-79
2023/07/10 02:33:55;;;;;;;3.00;1.50;;;20.30;91.20;;;;;;4965949;28;20046;-80
2023/07/10 02:36:23;;;;;;;2.63;1.38;;;20.30;91.10;;;;;;4962039;28;20039;-81
2023/07/10 02:38:53;;;;;;;3.88;1.20;;;20.30;91.20;;;;;;4951601;28;20053;-81
2023/07/10 02:41:20;;;;;;;2.88;0.85;;;20.30;91.20;;;;;;4939641;29;20142;-81
2023/07/10 02:43:47;;;;;;;1.92;0.93;;;20.30;91.10;;;;;;4953623;28;20057;-80
2023/07/10 02:46:17;;;;;;;1.95;0.90;;;20.30;91.10;;;;;;4959231;28;20465;-80
2023/07/10 02:48:44;;;;;;;4.80;0.95;;;20.30;91.00;;;;;;4934237;28;20042;-80
2023/07/10 02:51:12;;;;;;;3.83;1.42;;;20.30;91.00;;;;;;4956291;28;20054;-80
2023/07/10 02:53:40;;;;;;;3.22;1.50;;;20.30;91.20;;;;;;4913114;29;20043;-80
2023/07/10 02:56:07;;;;;;;2.33;1.00;;;20.30;90.90;;;;;;4950166;29;20063;-80
2023/07/10 02:58:34;;;;;;;2.15;0.73;;;20.30;90.90;;;;;;4941727;28;20051;-80
2023/07/10 03:01:02;;;;;;;2.60;0.88;;;20.30;90.90;;;;;;4942375;28;20050;-80
2023/07/10 03:03:30;;;;;;;2.80;1.38;;;20.30;90.90;;;;;;4945578;28;20043;-80
2023/07/10 03:06:01;;;;;;;2.38;1.10;;;20.40;90.90;;;;;;4963321;28;20039;-80
2023/07/10 03:08:29;;;;;;;3.63;1.40;;;20.30;90.80;;;;;;4943445;29;20051;-80
2023/07/10 03:11:05;;;;;;;3.17;0.95;;;20.20;90.80;;;;;;4967926;28;20043;-80
2023/07/10 03:13:32;;;;;;;2.40;1.02;;;20.20;90.80;;;;;;4954734;28;20452;-81
2023/07/10 03:16:05;;;;;;;1.70;0.90;;;20.10;90.80;;;;;;4937629;28;20130;-80
2023/07/10 03:18:36;;;;;;;1.80;0.70;;;20.10;90.80;;;;;;4967834;28;20058;-80
2023/07/10 03:21:06;;;;;;;2.13;0.60;;;20.00;90.80;;;;;;4928202;28;20053;-80
2023/07/10 03:23:33;;;;;;;1.75;0.75;;;20.00;90.80;;;;;;4938373;28;20463;-80
2023/07/10 03:26:01;;;;;;;2.50;1.00;;;20.00;90.80;;;;;;4960979;28;20035;-80
2023/07/10 03:28:28;;;;;;;5.70;1.02;;;20.00;90.80;;;;;;4948395;28;20042;-80
2023/07/10 03:30:58;;;;;;;1.70;0.93;;;20.00;90.70;;;;;;4955552;28;20046;-81
2023/07/10 03:33:25;;;;;;;2.78;0.55;;;20.00;90.60;;;;;;4968112;28;20055;-81
2023/07/10 03:36:00;;;;;;;1.88;0.90;;;20.00;90.60;;;;;;4946621;28;20483;-81
2023/07/10 03:38:28;;;;;;;2.15;0.85;;;19.90;90.50;;;;;;4960351;28;20049;-80
2023/07/10 03:40:57;;;;;;;1.73;0.70;;;19.90;90.50;;;;;;4959033;28;20404;-80
2023/07/10 03:43:26;;;;;;;2.70;0.98;;;19.90;90.50;;;;;;4973452;28;20076;-80
2023/07/10 03:45:54;;;;;;;2.97;0.90;;;19.90;90.40;;;;;;4965658;28;20064;-80
2023/07/10 03:48:21;;;;;;;4.05;0.68;;;19.90;90.40;;;;;;4973547;28;20096;-80
2023/07/10 03:50:48;;;;;;;2.85;1.15;;;19.90;90.40;;;;;;4947583;28;20042;-80
2023/07/10 03:53:15;;;;;;;1.95;0.80;;;19.90;90.30;;;;;;4941495;29;20167;-80
2023/07/10 03:55:53;;;;;;;2.97;0.93;;;19.90;90.30;;;;;;4957913;28;20042;-80
2023/07/10 03:58:27;;;;;;;3.70;1.33;;;19.90;90.30;;;;;;4958281;28;20057;-81
2023/07/10 04:00:56;;;;;;;2.30;0.93;;;19.90;90.30;;;;;;4951950;28;20043;-80
2023/07/10 04:03:29;;;;;;;3.75;1.52;;;19.80;90.40;;;;;;4938778;28;20062;-80
2023/07/10 04:05:58;;;;;;;3.33;1.17;;;19.80;90.40;;;;;;4968408;28;20046;-80
2023/07/10 04:08:30;;;;;;;3.42;1.13;;;19.80;90.30;;;;;;4955199;28;20167;-80
2023/07/10 04:10:58;;;;;;;;;;;19.80;90.30;;;;;;4946311;28;20054;-80
2023/07/10 04:13:26;;;;;;;5.28;1.48;;;19.70;90.50;;;;;;4961563;28;20326;-81
2023/07/10 04:16:03;;;;;;;2.10;1.10;;;19.70;90.20;;;;;;4948386;29;20079;-81
2023/07/10 04:18:38;;;;;;;2.22;1.08;;;19.70;90.20;;;;;;4954982;28;20039;-80
2023/07/10 04:21:09;;;;;;;1.63;0.90;;;19.70;90.10;;;;;;4947029;28;20491;-80
2023/07/10 04:23:37;;;;;;;3.17;1.15;;;19.70;90.10;;;;;;4955327;28;20047;-85
2023/07/10 04:26:04;;;;;;;4.65;1.80;;;19.60;90.10;;;;;;4954765;28;20031;-80
2023/07/10 04:28:31;;;;;;;3.17;1.33;;;19.60;90.00;;;;;;4942357;29;20078;-79
2023/07/10 04:31:00;;;;;;;2.10;1.20;;;19.60;90.00;;;;;;4939136;29;20071;-79
2023/07/10 04:33:27;;;;;;;1.73;1.00;;;19.60;90.00;;;;;;4925610;28;20043;-79
2023/07/10 04:35:56;;;;;;;4.35;1.23;;;19.60;90.00;;;;;;4946504;28;20403;-79
2023/07/10 04:38:26;;;;;;;2.95;1.52;;;19.60;90.00;;;;;;4957951;28;20051;-79
2023/07/10 04:40:59;;;;;;;4.30;1.52;;;19.60;89.70;;;;;;4925617;29;20420;-80
2023/07/10 04:43:30;;;;;;;2.90;1.10;;;19.70;89.50;;;;;;4927498;29;20052;-80
2023/07/10 04:46:01;;;;;;;3.25;1.10;;;19.70;89.30;;;;;;4932810;29;20535;-80
2023/07/10 04:48:29;;;;;;;3.43;1.10;;;19.70;89.20;;;;;;4964348;28;20059;-80
2023/07/10 04:51:02;;;;;;;2.50;1.05;;;19.60;89.20;;;;;;4955306;28;20392;-81
2023/07/10 04:53:34;;;;;;;2.03;0.95;;;19.60;89.10;;;;;;4961587;28;20097;-82
2023/07/10 04:56:11;;;;;;;2.85;1.20;;;19.60;89.10;;;;;;4961551;28;20042;-81
2023/07/10 04:58:54;;;;;;;3.17;1.10;;;19.60;88.90;;;;;;4945532;28;20451;-81
2023/07/10 05:01:28;;;;;;;4.35;1.30;;;19.70;88.70;;;;;;4955399;28;20105;-81
2023/07/10 05:03:57;;;;;;;3.53;1.40;;;19.70;88.70;;;;;;4952182;28;20495;-81
2023/07/10 05:06:28;;;;;;;5.05;1.60;;;19.60;88.60;;;;;;4957102;28;20047;-81
2023/07/10 05:09:00;;;;;;;4.28;1.83;;;19.60;88.50;;;;;;4961268;28;20077;-80
2023/07/10 05:11:30;;;;;;;2.97;1.23;;;19.60;88.50;;;;;;4956766;28;20467;-82
2023/07/10 05:14:04;;;;;;;4.03;1.38;;;19.60;88.50;;;;;;4939740;29;20047;-81
2023/07/10 05:16:38;;;;;;;5.53;1.40;;;19.60;88.60;;;;;;4924844;28;20046;-80
2023/07/10 05:19:09;;;;;;;3.35;1.10;;;19.50;88.60;;;;;;4945960;28;20503;-82
2023/07/10 05:21:45;;;;;;;2.95;0.85;;;19.40;88.80;;;;;;4951134;29;20496;-82
2023/07/10 05:24:13;;;;;;;3.00;1.27;;;19.40;88.90;;;;;;4970466;28;20126;-81
2023/07/10 05:26:41;;;;;;;2.75;1.20;;;19.40;89.00;;;;;;4942267;29;20138;-81
2023/07/10 05:29:25;;;;;;;2.33;0.70;;;19.30;89.00;;;;;;4961441;28;20059;-81
2023/07/10 05:31:56;;;;;;;;;;;19.40;89.00;;;;;;4964599;28;20079;-82
2023/07/10 05:34:28;;;;;;;2.88;0.93;;;19.40;89.00;;;;;;4955099;29;19922;-81
2023/07/10 05:37:06;;;;;;;3.08;0.90;;;19.40;88.80;;;;;;4960328;28;20049;-82
2023/07/10 05:39:36;;;;;;;2.70;1.00;;;19.40;88.80;;;;;;4958822;28;20047;-82
2023/07/10 05:42:07;;;;;;;3.30;0.70;;;19.50;88.60;;;;;;4975776;28;20133;-81
2023/07/10 05:44:35;;;;;;;4.32;0.77;;;19.50;88.40;;;;;;4961676;28;20078;-82
2023/07/10 05:47:03;;;;;;;2.65;0.75;;;19.60;88.30;;;;;;4963657;28;20043;-81
2023/07/10 05:49:31;;;;;;;2.42;0.88;;;19.50;88.20;;;;;;4958382;28;20047;-81
2023/07/10 05:52:01;;;;;;;3.45;1.48;;;19.50;88.10;;;;;;4955978;28;20062;-82
2023/07/10 05:54:29;;;;;;;2.88;1.00;;;19.40;88.20;;;;;;4951252;28;20058;-81
2023/07/10 05:57:00;;;;;;;1.92;1.02;;;19.40;88.30;;;;;;4953664;28;20054;-80
2023/07/10 05:59:29;;;;;;;5.78;1.15;;;19.40;88.40;;;;;;4966615;28;20051;-81
2023/07/10 06:01:57;;;;;;;2.08;0.88;;;19.40;88.30;;;;;;4937426;28;20066;-81
2023/07/10 06:04:24;;;;;;;1.77;0.73;;;19.50;88.20;;;;;;4958872;28;20047;-80
2023/07/10 06:06:55;;;;;;;1.70;0.63;;;19.70;87.80;;;;;;4941189;28;20054;-81
2023/07/10 06:09:23;;;;;;;2.13;0.80;;;19.80;87.30;;;;;;4962766;28;20051;-81
2023/07/10 06:11:50;;;;;;;2.70;0.77;;;20.00;86.90;;;;;;4915442;28;20057;-81
2023/07/10 06:14:18;;;;;;;1.90;0.60;;;20.10;86.40;;;;;;4948053;28;20126;-81
2023/07/10 06:16:45;;;;;;;4.32;1.02;;;20.20;86.10;;;;;;4946579;28;20488;-82
2023/07/10 06:19:12;;;;;;;4.93;1.13;;;20.40;85.90;;;;;;4968728;28;20042;-82
2023/07/10 06:21:39;;;;;;;2.97;0.80;;;20.50;85.60;;;;;;4963534;28;20109;-81
2023/07/10 06:24:07;;;;;;;2.80;0.98;;;20.50;85.50;;;;;;4948219;28;20049;-82
2023/07/10 06:26:34;;;;;;;3.55;0.85;;;20.50;85.30;;;;;;4948698;28;20067;-82
2023/07/10 06:29:02;;;;;;;1.73;0.75;;;20.60;85.30;;;;;;4986416;28;20056;-82
2023/07/10 06:31:29;;;;;;;2.97;0.98;;;20.70;85.00;;;;;;4952149;28;20047;-81
2023/07/10 06:33:58;;;;;;;1.65;0.60;;;20.80;84.50;;;;;;4931689;28;20035;-82
2023/07/10 06:36:25;;;;;;;3.42;0.65;;;20.90;84.30;;;;;;4931847;28;20047;-81
2023/07/10 06:38:53;;;;;;;2.85;0.60;;;21.00;84.00;;;;;;4954225;28;20050;-82
2023/07/10 06:41:20;;;;;;;2.28;0.60;;;21.10;83.70;;;;;;4946208;28;20495;-82
2023/07/10 06:43:47;;;;;;;1.75;0.50;;;21.20;83.50;;;;;;4941097;28;20097;-81
2023/07/10 06:46:14;;;;;;;3.65;0.65;;;21.30;83.30;;;;;;4928137;28;20553;-81
2023/07/10 06:48:45;;;;;;;2.33;0.60;;;21.30;82.80;;;;;;4937365;28;20046;-81
2023/07/10 06:51:12;;;;;;;2.58;0.52;;;21.40;82.70;;;;;;4941498;29;20090;-82
2023/07/10 06:53:39;;;;;;;2.30;0.50;;;21.50;82.60;;;;;;4959831;28;20150;-81
2023/07/10 06:56:06;;;;;;;2.72;0.50;;;21.60;82.20;;;;;;4915053;28;20150;-82
2023/07/10 06:58:34;;;;;;;2.58;0.50;;;21.60;81.90;;;;;;4928717;28;20043;-82
2023/07/10 07:01:02;;;;;;;3.72;0.70;;;21.70;81.30;;;;;;4950867;28;20062;-82
2023/07/10 07:03:30;;;;;;;3.30;0.80;;;21.70;80.90;;;;;;4959863;28;20085;-82
2023/07/10 07:05:58;;;;;;;2.72;0.70;;;21.70;80.60;;;;;;4979154;28;20046;-82
2023/07/10 07:08:26;;;;;;;2.45;0.75;;;21.70;80.60;;;;;;4944885;29;20066;-85
2023/07/10 07:10:54;;;;;;;3.38;0.60;;;21.80;80.00;;;;;;4961292;28;20058;-84
2023/07/10 07:13:21;;;;;;;3.10;0.70;;;21.80;79.60;;;;;;4968256;28;20110;-79
2023/07/10 07:15:54;;;;;;;4.72;1.05;;;21.90;79.70;;;;;;4937014;29;20058;-79
2023/07/10 07:18:22;;;;;;;2.75;0.63;;;22.00;79.40;;;;;;4956417;29;20039;-80
2023/07/10 07:20:53;;;;;;;2.53;0.70;;;22.10;78.50;;;;;;4957589;28;20047;-87
2023/07/10 07:23:20;;;;;;;3.00;0.60;;;22.10;78.20;;;;;;4938273;29;20095;-86
2023/07/10 07:25:47;;;;;;;2.85;0.40;;;22.20;77.60;;;;;;4953327;29;20544;-82
2023/07/10 07:28:14;;;;;;;4.40;0.60;;;22.20;77.10;;;;;;4930107;28;20043;-83
2023/07/10 07:30:47;;;;;;;2.38;0.70;;;22.20;76.60;;;;;;4961684;28;20043;-81
2023/07/10 07:33:20;;;;;;;2.65;0.47;;;22.30;76.40;;;;;;4959811;28;20424;-81
2023/07/10 07:35:48;;;;;;;2.75;0.50;;;22.30;76.40;;;;;;4944365;29;20059;-78
2023/07/10 07:38:18;;;;;;;2.13;0.60;;;22.40;76.20;;;;;;4958245;28;20074;-89
2023/07/10 07:40:47;;;;;;;2.97;0.52;;;22.40;75.50;;;;;;4946765;28;20038;-89
2023/07/10 07:43:17;;;;;;;1.83;0.40;;;22.40;75.30;;;;;;4966326;28;20047;-87
2023/07/10 07:45:52;;;;;;;3.00;0.50;;;22.50;75.30;;;;;;4940977;29;20054;-84
2023/07/10 07:48:21;;;;;;;3.45;0.47;;;22.60;74.80;;;;;;4943142;29;20622;-85
2023/07/10 07:51:03;;;;;;;3.00;0.40;;;22.70;74.00;;;;;;4952942;28;20055;-85
2023/07/10 07:53:32;;;;;;;;;;;22.70;73.50;;;;;;4956019;28;20055;-79
2023/07/10 07:56:00;;;;;;;4.35;0.70;;;22.70;73.30;;;;;;4955589;28;19926;-80
2023/07/10 07:58:29;;;;;;;2.75;0.50;;;22.70;73.00;;;;;;4940013;28;20440;-85
2023/07/10 08:00:59;;;;;;;1.93;0.50;;;22.80;73.30;;;;;;4954856;28;20066;-80
2023/07/10 08:03:30;;;;;;;2.92;0.50;;;23.00;73.10;;;;;;4957699;28;20039;-82
2023/07/10 08:05:58;;;;;;;3.78;1.30;;;23.10;72.60;;;;;;4921713;29;20048;-84
2023/07/10 08:08:25;;;;;;;2.25;0.45;;;23.10;72.20;;;;;;4927573;29;20143;-84
2023/07/10 08:10:52;;;;;;;1.85;0.40;;;23.10;72.40;;;;;;4942477;29;20056;-83
2023/07/10 08:13:20;;;;;;;4.75;0.70;;;23.20;72.20;;;;;;4956351;28;20059;-84
2023/07/10 08:16:00;;;;;;;3.17;0.30;;;23.20;71.90;;;;;;4949454;29;20103;-84
2023/07/10 08:18:30;;;;;;;3.70;0.60;;;23.30;72.10;;;;;;4941942;28;20130;-80
2023/07/10 08:21:05;;;;;;;5.00;0.60;;;23.40;71.80;;;;;;4964704;28;20134;-84
2023/07/10 08:23:32;;;;;;;4.05;0.65;;;23.40;71.80;;;;;;4939454;29;20134;-84
2023/07/10 08:26:00;;;;;;;3.50;0.82;;;23.50;71.80;;;;;;4965294;28;20051;-83
2023/07/10 08:28:31;;;;;;;4.40;0.60;;;23.60;71.50;;;;;;4941830;29;20070;-84
2023/07/10 08:30:59;;;;;;;1.70;0.50;;;23.60;71.30;;;;;;4965353;28;20043;-81
2023/07/10 08:33:29;;;;;;;2.88;0.50;;;23.60;71.20;;;;;;4956974;28;20377;-84
2023/07/10 08:36:05;;;;;;;3.78;0.65;;;23.60;71.10;;;;;;4956130;28;20496;-84
2023/07/10 08:38:34;;;;;;;4.43;0.57;;;23.70;71.10;;;;;;4941215;28;20043;-84
2023/07/10 08:41:12;;;;;;;2.88;0.60;;;23.80;71.10;;;;;;4977838;28;20035;-83
2023/07/10 08:43:41;;;;;;;3.63;1.10;;;23.90;70.60;;;;;;4945649;28;20042;-83
2023/07/10 08:46:18;;;;;;;3.08;0.68;;;23.90;70.10;;;;;;4948559;28;20492;-84
2023/07/10 08:48:59;;;;;;;3.17;0.65;;;24.00;70.20;;;;;;4936040;28;20073;-90
2023/07/10 08:51:44;;;;;;;3.40;0.80;;;24.10;69.70;;;;;;4962300;28;20051;-84
2023/07/10 08:54:18;;;;;;;3.05;0.63;;;24.10;69.30;;;;;;4958198;28;20054;-85
2023/07/10 08:56:50;;;;;;;3.92;0.50;;;24.20;69.40;;;;;;4973808;28;20483;-87
2023/07/10 08:59:35;;;;;;;4.63;0.77;;;24.30;69.10;;;;;;4955414;28;20058;-86
2023/07/10 09:02:03;;;;;;;2.53;0.70;;;24.30;68.60;;;;;;4934736;28;20047;-83
2023/07/10 09:04:43;;;;;;;2.35;0.68;;;24.40;69.00;;;;;;4937527;28;20506;-83
2023/07/10 09:07:14;;;;;;;2.38;0.65;;;24.50;68.60;;;;;;4959603;28;20055;-82
2023/07/10 09:10:05;;;;;;;2.58;0.80;;;24.60;68.20;;;;;;4940623;28;20077;-81
2023/07/10 09:12:46;;;;;;;4.88;0.98;;;24.60;68.30;;;;;;4961356;28;20041;-83
2023/07/10 09:15:27;;;;;;;4.30;0.50;;;24.70;68.40;;;;;;4948913;28;20047;-80
2023/07/10 09:18:41;;;;;;;4.40;0.60;;;24.70;68.10;;;;;;4965346;28;20133;-86
2023/07/10 09:21:18;;;;;;;3.72;0.75;;;24.90;67.80;;;;;;4949302;28;20043;-84
2023/07/10 09:23:46;;;;;;;3.30;0.60;;;25.00;66.70;;;;;;4967192;28;20499;-84
2023/07/10 09:26:25;;;;;;;2.33;0.52;;;24.90;66.20;;;;;;4965748;28;20102;-84
2023/07/10 09:29:10;;;;;;;1.73;0.47;;;24.90;66.00;;;;;;4972169;28;20066;-83
2023/07/10 09:31:56;;;;;;;2.47;0.60;;;24.90;66.40;;;;;;4977688;28;20077;-85
2023/07/10 09:34:28;;;;;;;2.67;0.40;;;25.00;66.20;;;;;;4970778;28;20155;-86
2023/07/10 09:36:57;;;;;;;2.58;0.75;;;25.20;66.30;;;;;;4970123;28;20134;-84
2023/07/10 09:39:27;;;;;;;1.95;0.40;;;25.30;66.10;;;;;;4950019;28;20043;-87
2023/07/10 09:42:02;;;;;;;1.23;0.43;;;25.40;66.00;;;;;;4948620;28;20046;-89
2023/07/10 09:44:44;;;;;;;4.65;0.98;;;25.60;65.30;;;;;;4953068;28;20057;-85
2023/07/10 09:47:13;;;;;;;;;;;25.50;64.10;;;;;;4954511;28;20050;-82
2023/07/10 09:49:56;;;;;;;2.47;0.50;;;25.50;64.50;;;;;;4964728;28;20018;-85
2023/07/10 09:52:31;;;;;;;4.43;0.60;;;25.60;64.00;;;;;;4965784;28;20081;-86
2023/07/10 09:55:14;;;;;;;5.85;0.70;;;25.50;63.00;;;;;;4971993;28;20047;-87
2023/07/10 09:57:56;;;;;;;3.00;0.60;;;25.50;62.80;;;;;;4954691;28;20043;-84
2023/07/10 10:00:23;;;;;;;2.58;0.57;;;25.50;62.60;;;;;;4959625;28;20613;-86
2023/07/10 10:03:02;;;;;;;3.33;0.60;;;25.50;61.50;;;;;;4940175;28;20043;-87
2023/07/10 10:05:38;;;;;;;2.85;0.57;;;25.50;61.40;;;;;;4955009;29;20051;-90
2023/07/10 10:08:21;;;;;;;2.40;0.40;;;25.40;61.20;;;;;;4954975;29;20062;-89
2023/07/10 10:11:06;;;;;;;3.53;0.60;;;25.60;61.70;;;;;;4940954;29;20074;-86
2023/07/10 10:13:45;;;;;;;3.97;0.52;;;25.80;61.50;;;;;;4975147;28;20070;-86
2023/07/10 10:16:29;;;;;;;4.22;0.60;;;25.90;60.60;;;;;;4971763;28;20121;-87
2023/07/10 10:19:15;;;;;;;2.25;0.50;;;25.90;60.50;;;;;;4970212;28;20043;-88
2023/07/10 10:21:44;;;;;;;3.95;0.60;;;26.10;60.30;;;;;;4944206;29;20046;-87
2023/07/10 10:24:13;;;;;;;2.60;0.60;;;26.20;59.60;;;;;;4956351;28;20046;-87
2023/07/10 10:27:03;;;;;;;2.83;0.50;;;26.30;59.90;;;;;;4960982;28;20089;-88
2023/07/10 10:29:50;;;;;;;1.27;0.50;;;26.40;58.70;;;;;;4958055;28;20059;-89
2023/07/10 10:32:36;;;;;;;2.60;0.60;;;26.60;58.70;;;;;;4928175;29;20054;-88
2023/07/10 10:35:40;;;;;;;3.08;0.63;;;26.70;57.90;;;;;;4968516;28;20510;-86
2023/07/10 10:38:13;;;;;;;3.35;0.68;;;26.70;57.30;;;;;;4942402;28;20105;-88
2023/07/10 10:40:45;;;;;;;3.20;0.60;;;26.90;57.30;;;;;;4941639;29;20044;-87
2023/07/10 10:43:52;;;;;;;4.32;0.65;;;26.90;57.10;;;;;;4959123;28;20480;-85
2023/07/10 10:46:19;;;;;;;3.47;0.73;;;26.80;57.10;;;;;;4962866;28;20043;-83
2023/07/10 10:49:25;;;;;;;3.75;0.77;;;26.80;56.70;;;;;;4969546;28;20105;-87
2023/07/10 10:52:23;;;;;;;2.65;0.60;;;26.90;55.80;;;;;;4948701;28;20078;-84
2023/07/10 10:55:45;;;;;;;3.03;0.70;;;26.80;55.10;;;;;;4983584;28;20127;-86
2023/07/10 10:58:40;;;;;;;5.03;0.83;;;26.80;55.10;;;;;;4880741;29;20101;-91
2023/07/10 11:02:07;;;;;;;3.10;0.50;;;26.80;55.70;;;;;;4955365;29;20055;-87
2023/07/10 11:04:58;;;;;;;3.83;0.70;;;27.00;55.40;;;;;;4900666;29;20052;-83
2023/07/10 11:07:28;;;;;;;4.43;0.60;;;27.00;55.60;;;;;;4951747;28;20055;-85
2023/07/10 11:10:01;;;;;;;3.33;0.65;;;26.90;55.60;;;;;;4950198;28;20055;-85
2023/07/10 11:12:32;;;;;;;2.55;0.70;;;26.90;56.00;;;;;;4971402;28;20064;-86
2023/07/10 11:15:19;;;;;;;7.05;0.90;;;26.90;56.10;;;;;;4977440;28;20047;-86
2023/07/10 11:17:50;;;;;;;3.72;0.73;;;26.80;55.50;;;;;;4988763;28;20114;-86
2023/07/10 11:20:19;;;;;;;3.90;0.70;;;26.80;55.70;;;;;;4980895;28;20062;-87
2023/07/10 11:23:00;;;;;;;2.78;0.50;;;26.90;55.50;;;;;;4978893;28;20054;-86
2023/07/10 11:28:28;;;;;;;5.68;0.77;;;27.10;55.10;;;;;;4976125;28;20054;-85
2023/07/10 11:35:24;;;;;;;;;;;27.30;54.60;;;;;;4874919;29;20048;-91
2023/07/10 11:38:16;;;;;;;3.10;0.60;;;27.20;53.80;;;;;;4893172;29;20506;-88
2023/07/10 11:40:45;;;;;;;2.83;0.50;;;27.10;54.10;;;;;;4912855;29;20056;-89
2023/07/10 11:43:45;;;;;;;3.33;0.60;;;26.80;54.50;;;;;;4940889;29;20047;-88
2023/07/10 11:46:21;;;;;;;2.25;0.57;;;26.60;54.70;;;;;;4939319;28;20094;-89
2023/07/10 11:49:07;;;;;;;2.50;0.60;;;26.80;55.00;;;;;;4970581;28;20062;-93
2023/07/10 11:51:37;;;;;;;1.67;0.60;;;27.30;54.60;;;;;;4963475;28;20049;-80
2023/07/10 11:54:11;;;;;;;3.83;0.50;;;27.70;54.20;;;;;;4959366;28;20058;-82
2023/07/10 11:57:01;;;;;;;4.93;0.70;;;27.90;53.50;;;;;;4941712;29;20506;-82
2023/07/10 11:59:29;;;;;;;3.03;1.02;;;28.10;53.30;;;;;;4926621;29;20495;-82
2023/07/10 12:01:56;;;;;;;1.38;0.40;;;28.40;53.20;;;;;;4965477;28;20047;-82
2023/07/10 12:04:26;;;;;;;2.38;0.60;;;28.50;53.10;;;;;;4949747;28;20045;-82
2023/07/10 12:06:56;;;;;;;4.10;0.75;;;28.80;52.20;;;;;;4952647;28;20500;-82
2023/07/10 12:09:24;;;;;;;2.88;0.63;;;29.00;52.00;;;;;;4940559;28;20055;-81
2023/07/10 12:11:55;;;;;;;1.63;0.40;;;28.90;51.60;;;;;;4948962;28;20050;-90
2023/07/10 12:14:28;;;;;;;2.70;0.60;;;29.10;51.90;;;;;;4964092;28;20101;-82
2023/07/10 12:16:58;;;;;;;3.38;0.40;;;29.40;51.00;;;;;;4943766;28;20046;-89
2023/07/10 12:19:35;;;;;;;1.85;0.40;;;29.70;50.90;;;;;;4969784;28;20050;-84
2023/07/10 12:22:15;;;;;;;3.42;0.50;;;30.10;50.60;;;;;;4954211;28;20074;-84
2023/07/10 12:24:54;;;;;;;1.60;0.45;;;30.40;50.40;;;;;;4944394;28;20047;-87
2023/07/10 12:27:26;;;;;;;1.27;0.30;;;30.80;50.30;;;;;;4957040;28;20261;-82
2023/07/10 12:29:56;;;;;;;2.47;0.40;;;31.30;50.20;;;;;;4975319;28;20053;-85
2023/07/10 12:32:25;;;;;;;4.32;0.50;;;31.70;49.30;;;;;;4952008;28;20400;-84
2023/07/10 12:34:58;;;;;;;1.67;0.30;;;31.60;48.90;;;;;;4957983;28;20146;-84
2023/07/10 12:37:25;;;;;;;2.35;0.43;;;31.70;49.20;;;;;;4919472;29;20051;-86
2023/07/10 12:39:52;;;;;;;6.35;0.70;;;31.90;48.00;;;;;;4949685;28;20131;-89
2023/07/10 12:42:32;;;;;;;3.15;0.60;;;31.70;46.20;;;;;;4952927;28;20050;-85
2023/07/10 12:45:05;;;;;;;4.60;0.50;;;31.60;46.50;;;;;;4958600;28;20043;-87
2023/07/10 12:47:36;;;;;;;3.72;0.50;;;31.60;46.70;;;;;;4961189;28;20043;-87
2023/07/10 12:50:39;;;;;;;5.15;0.80;;;31.90;46.50;;;;;;4964982;28;20046;-89
2023/07/10 12:53:13;;;;;;;2.75;0.73;;;32.30;46.10;;;;;;4927211;29;20499;-84
2023/07/10 12:55:41;;;;;;;1.63;0.43;;;32.40;45.60;;;;;;4956481;28;20050;-89
2023/07/10 12:58:16;;;;;;;0.90;0.20;;;32.70;46.00;;;;;;4909581;29;20047;-89
2023/07/10 13:00:48;;;;;;;0.57;0.20;;;32.40;46.50;;;;;;4957208;28;20051;-91
2023/07/10 13:03:23;;;;;;;1.55;0.32;;;32.80;46.50;;;;;;4954943;28;20047;-89
2023/07/10 13:05:53;;;;;;;2.47;0.60;;;33.20;45.60;;;;;;4964240;28;20039;-89
2023/07/10 13:24:59;;;;;;;1.42;0.32;;;33.60;44.50;;;;;;4847925;29;20061;-93
2023/07/10 13:28:16;;;;;;;1.23;0.50;;;34.20;44.30;;;;;;4873123;29;20054;-91
2023/07/10 13:30:43;;;;;;;1.70;0.35;;;34.70;43.90;;;;;;4881081;29;20053;-90
2023/07/10 13:44:54;;;;;;;3.25;0.40;;;34.90;42.30;;;;;;4897245;29;20057;-90
2023/07/10 13:47:26;;;;;;;2.20;0.30;;;35.00;42.10;;;;;;4935700;29;20052;-94
2023/07/10 13:54:57;;;;;;;3.05;0.55;;;35.00;41.20;;;;;;4937580;29;20477;-90
2023/07/10 13:57:30;;;;;;;1.50;0.40;;;34.70;40.70;;;;;;4934209;29;20126;-92
2023/07/10 14:00:00;;;;;;;1.52;0.38;;;35.10;40.60;;;;;;4938648;29;20121;-92